createdAt,value
2019-04-07T00:00:00.434Z,992.45
2019-04-07T00:01:09.422Z,992.42
2019-04-07T00:02:04.484Z,992.40
2019-04-07T00:03:01.503Z,992.37
2019-04-07T00:04:05.293Z,992.37
2019-04-07T00:05:13.613Z,992.42
2019-04-07T00:06:03.104Z,992.44
2019-04-07T00:07:05.321Z,992.42
2019-04-07T00:08:05.914Z,992.42
2019-04-07T00:09:02.760Z,992.41
2019-04-07T00:10:03.874Z,992.45
2019-04-07T00:11:03.517Z,992.45
2019-04-07T00:12:03.829Z,992.48
2019-04-07T00:13:04.023Z,992.43
2019-04-07T00:14:04.074Z,992.44
2019-04-07T00:15:04.967Z,992.41
2019-04-07T00:16:04.663Z,992.47
2019-04-07T00:17:05.771Z,992.45
2019-04-07T00:18:09.322Z,992.43
2019-04-07T00:19:06.569Z,992.36
2019-04-07T00:20:07.449Z,992.43
2019-04-07T00:21:06.264Z,992.38
2019-04-07T00:22:08.281Z,992.43
2019-04-07T00:23:11.926Z,992.38
2019-04-07T00:24:09.291Z,992.41
2019-04-07T00:25:09.799Z,992.35
2019-04-07T00:26:14.378Z,992.34
2019-04-07T00:27:08.012Z,992.41
2019-04-07T00:28:10.061Z,992.41
2019-04-07T00:29:06.988Z,992.38
2019-04-07T00:30:11.021Z,992.43
2019-04-07T00:31:11.061Z,992.38
2019-04-07T00:32:11.642Z,992.37
2019-04-07T00:33:11.831Z,992.44
2019-04-07T00:34:09.601Z,992.39
2019-04-07T00:35:08.944Z,992.43
2019-04-07T00:36:09.564Z,992.42
2019-04-07T00:37:12.927Z,992.44
2019-04-07T00:38:10.574Z,992.47
2019-04-07T00:39:10.540Z,992.46
2019-04-07T00:40:17.565Z,992.44
2019-04-07T00:41:09.983Z,992.51
2019-04-07T00:42:10.470Z,992.46
2019-04-07T00:43:10.216Z,992.52
2019-04-07T00:44:10.487Z,992.46
2019-04-07T00:45:10.835Z,992.54
2019-04-07T00:46:11.535Z,992.64
2019-04-07T00:47:11.428Z,992.53
2019-04-07T00:48:12.302Z,992.51
2019-04-07T00:49:11.767Z,992.57
2019-04-07T00:50:12.063Z,992.49
2019-04-07T00:51:12.450Z,992.45
2019-04-07T00:52:12.872Z,992.51
2019-04-07T00:53:13.460Z,992.51
2019-04-07T00:54:12.935Z,992.52
2019-04-07T00:55:13.084Z,992.49
2019-04-07T00:56:13.176Z,992.52
2019-04-07T00:57:13.106Z,992.54
2019-04-07T00:58:13.755Z,992.51
2019-04-07T00:59:14.328Z,992.48
2019-04-07T01:00:16.494Z,992.50
2019-04-07T01:01:14.320Z,992.55
2019-04-07T01:02:14.627Z,992.47
2019-04-07T01:03:14.940Z,992.51
2019-04-07T01:04:15.332Z,992.47
2019-04-07T01:05:15.846Z,992.51
2019-04-07T01:06:15.631Z,992.55
2019-04-07T01:07:15.928Z,992.58
2019-04-07T01:08:16.252Z,992.53
2019-04-07T01:09:17.192Z,992.59
2019-04-07T01:10:17.434Z,992.55
2019-04-07T01:11:16.979Z,992.55
2019-04-07T01:13:17.364Z,992.60
2019-04-07T01:14:18.205Z,992.50
2019-04-07T01:15:17.715Z,992.57
2019-04-07T01:16:17.982Z,992.62
2019-04-07T01:17:19.067Z,992.61
2019-04-07T01:18:18.325Z,992.61
2019-04-07T01:19:18.907Z,992.56
2019-04-07T01:20:19.431Z,992.61
2019-04-07T01:21:19.467Z,992.56
2019-04-07T01:22:19.365Z,992.62
2019-04-07T01:23:20.297Z,992.59
2019-04-07T01:24:19.936Z,992.62
2019-04-07T01:25:20.393Z,992.51
2019-04-07T01:26:20.843Z,992.56
2019-04-07T01:27:21.116Z,992.59
2019-04-07T01:28:21.986Z,992.60
2019-04-07T01:29:22.221Z,992.56
2019-04-07T01:30:22.601Z,992.57
2019-04-07T01:31:22.569Z,992.62
2019-04-07T01:32:24.002Z,992.51
2019-04-07T01:33:23.587Z,992.57
2019-04-07T01:34:23.976Z,992.57
2019-04-07T01:35:23.861Z,992.61
2019-04-07T01:36:24.895Z,992.58
2019-04-07T01:37:24.432Z,992.53
2019-04-07T01:38:24.919Z,992.60
2019-04-07T01:39:25.198Z,992.61
2019-04-07T01:40:25.721Z,992.59
2019-04-07T01:41:26.330Z,992.59
2019-04-07T01:42:26.343Z,992.57
2019-04-07T01:43:26.656Z,992.64
2019-04-07T01:44:27.669Z,992.57
2019-04-07T01:45:27.975Z,992.66
2019-04-07T01:46:27.655Z,992.61
2019-04-07T01:47:27.763Z,992.69
2019-04-07T01:48:31.463Z,992.66
2019-04-07T01:49:28.758Z,992.62
2019-04-07T01:51:28.308Z,992.68
2019-04-07T01:52:28.862Z,992.58
2019-04-07T01:53:29.017Z,992.61
2019-04-07T01:54:28.930Z,992.69
2019-04-07T01:55:29.919Z,992.67
2019-04-07T01:56:29.627Z,992.59
2019-04-07T01:57:30.138Z,992.68
2019-04-07T01:58:29.806Z,992.67
2019-04-07T01:59:30.129Z,992.57
2019-04-07T02:00:30.104Z,992.64
2019-04-07T02:01:31.316Z,992.62
2019-04-07T02:02:31.090Z,992.65
2019-04-07T02:03:30.898Z,992.65
2019-04-07T02:04:31.243Z,992.64
2019-04-07T02:05:31.471Z,992.71
2019-04-07T02:06:32.063Z,992.64
2019-04-07T02:07:32.643Z,992.65
2019-04-07T02:08:32.902Z,992.69
2019-04-07T02:09:32.796Z,992.64
2019-04-07T02:10:33.896Z,992.62
2019-04-07T02:11:33.948Z,992.70
2019-04-07T02:12:35.060Z,992.58
2019-04-07T02:13:35.026Z,992.59
2019-04-07T02:14:34.610Z,992.65
2019-04-07T02:15:35.137Z,992.64
2019-04-07T02:16:35.659Z,992.64
2019-04-07T02:17:36.318Z,992.56
2019-04-07T02:18:35.846Z,992.65
2019-04-07T02:19:36.010Z,992.61
2019-04-07T02:20:36.287Z,992.61
2019-04-07T02:21:36.936Z,992.61
2019-04-07T02:22:37.702Z,992.61
2019-04-07T02:23:37.291Z,992.59
2019-04-07T02:24:38.005Z,992.71
2019-04-07T02:25:38.205Z,992.58
2019-04-07T02:26:39.026Z,992.57
2019-04-07T02:27:39.519Z,992.58
2019-04-07T02:28:39.252Z,992.60
2019-04-07T02:29:40.044Z,992.58
2019-04-07T02:30:39.605Z,992.57
2019-04-07T02:31:40.177Z,992.59
2019-04-07T02:32:40.239Z,992.57
2019-04-07T02:33:41.007Z,992.61
2019-04-07T02:34:42.340Z,992.57
2019-04-07T02:35:41.875Z,992.59
2019-04-07T02:36:42.012Z,992.58
2019-04-07T02:37:42.615Z,992.59
2019-04-07T02:38:42.440Z,992.63
2019-04-07T02:39:42.453Z,992.58
2019-04-07T02:40:43.036Z,992.64
2019-04-07T02:41:42.995Z,992.66
2019-04-07T02:42:43.433Z,992.61
2019-04-07T02:43:44.509Z,992.62
2019-04-07T02:44:43.408Z,992.62
2019-04-07T02:45:43.392Z,992.59
2019-04-07T02:46:44.126Z,992.57
2019-04-07T02:47:44.587Z,992.58
2019-04-07T02:48:44.657Z,992.61
2019-04-07T02:49:44.431Z,992.57
2019-04-07T02:50:45.138Z,992.62
2019-04-07T02:51:45.519Z,992.63
2019-04-07T02:52:45.243Z,992.61
2019-04-07T02:53:45.522Z,992.57
2019-04-07T02:54:46.360Z,992.60
2019-04-07T02:55:45.702Z,992.64
2019-04-07T02:56:46.242Z,992.58
2019-04-07T02:57:47.433Z,992.63
2019-04-07T02:59:46.481Z,992.64
2019-04-07T03:00:46.894Z,992.64
2019-04-07T03:01:46.897Z,992.64
2019-04-07T03:02:47.699Z,992.68
2019-04-07T03:03:48.254Z,992.68
2019-04-07T03:04:47.549Z,992.74
2019-04-07T03:05:47.768Z,992.75
2019-04-07T03:06:52.513Z,992.78
2019-04-07T03:07:48.742Z,992.80
2019-04-07T03:08:49.208Z,992.75
2019-04-07T03:09:49.170Z,992.74
2019-04-07T03:10:49.607Z,992.76
2019-04-07T03:11:49.401Z,992.78
2019-04-07T03:12:49.886Z,992.82
2019-04-07T03:13:50.408Z,992.78
2019-04-07T03:14:50.597Z,992.82
2019-04-07T03:15:50.557Z,992.82
2019-04-07T03:16:50.406Z,992.86
2019-04-07T03:17:50.566Z,992.79
2019-04-07T03:18:50.988Z,992.85
2019-04-07T03:19:52.178Z,992.81
2019-04-07T03:20:51.766Z,992.84
2019-04-07T03:21:52.506Z,992.83
2019-04-07T03:22:52.652Z,992.90
2019-04-07T03:23:52.975Z,992.91
2019-04-07T03:24:53.062Z,992.94
2019-04-07T03:25:52.863Z,992.90
2019-04-07T03:26:53.545Z,993.00
2019-04-07T03:27:53.303Z,992.87
2019-04-07T03:28:54.555Z,992.93
2019-04-07T03:29:54.255Z,992.91
2019-04-07T03:30:56.652Z,992.90
2019-04-07T03:31:56.718Z,992.90
2019-04-07T03:32:55.347Z,992.92
2019-04-07T03:33:56.679Z,992.88
2019-04-07T03:34:56.287Z,992.88
2019-04-07T03:35:57.110Z,992.89
2019-04-07T03:37:57.179Z,992.86
2019-04-07T03:38:56.287Z,992.79
2019-04-07T03:39:56.930Z,992.90
2019-04-07T03:40:56.963Z,992.92
2019-04-07T03:41:57.094Z,992.90
2019-04-07T03:42:57.423Z,992.86
2019-04-07T03:43:57.348Z,992.86
2019-04-07T03:44:57.427Z,992.87
2019-04-07T03:45:57.845Z,992.85
2019-04-07T03:46:58.923Z,992.85
2019-04-07T03:47:58.921Z,992.89
2019-04-07T03:48:58.885Z,992.87
2019-04-07T03:49:59.713Z,992.79
2019-04-07T03:50:59.933Z,992.86
2019-04-07T03:51:59.887Z,992.88
2019-04-07T03:52:59.232Z,992.91
2019-04-07T03:54:00.505Z,992.86
2019-04-07T03:54:59.996Z,992.90
2019-04-07T03:56:00.121Z,992.89
2019-04-07T03:57:00.520Z,992.91
2019-04-07T03:58:01.641Z,992.90
2019-04-07T03:59:01.399Z,992.88
2019-04-07T04:00:02.277Z,992.95
2019-04-07T04:01:01.384Z,992.90
2019-04-07T04:02:01.786Z,992.90
2019-04-07T04:03:02.677Z,992.93
2019-04-07T04:04:02.332Z,992.88
2019-04-07T04:05:03.002Z,992.97
2019-04-07T04:06:02.765Z,993.02
2019-04-07T04:07:18.133Z,992.96
2019-04-07T04:08:02.943Z,992.94
2019-04-07T04:09:03.373Z,992.92
2019-04-07T04:10:03.604Z,993.01
2019-04-07T04:11:04.228Z,992.92
2019-04-07T04:12:05.032Z,993.02
2019-04-07T04:13:05.147Z,992.91
2019-04-07T04:14:04.904Z,992.95
2019-04-07T04:15:04.877Z,992.93
2019-04-07T04:16:05.981Z,992.90
2019-04-07T04:17:05.094Z,992.94
2019-04-07T04:18:05.538Z,992.88
2019-04-07T04:19:06.753Z,992.91
2019-04-07T04:20:06.217Z,992.93
2019-04-07T04:21:06.972Z,992.93
2019-04-07T04:22:07.169Z,992.90
2019-04-07T04:23:06.498Z,992.94
2019-04-07T04:24:06.776Z,992.86
2019-04-07T04:25:08.474Z,992.91
2019-04-07T04:26:08.469Z,992.95
2019-04-07T04:27:08.649Z,992.95
2019-04-07T04:28:08.109Z,992.91
2019-04-07T04:29:08.383Z,992.93
2019-04-07T04:30:10.243Z,992.95
2019-04-07T04:31:09.014Z,992.93
2019-04-07T04:32:09.502Z,992.96
2019-04-07T04:33:10.302Z,992.93
2019-04-07T04:34:09.971Z,992.99
2019-04-07T04:35:10.797Z,992.92
2019-04-07T04:36:09.929Z,992.98
2019-04-07T04:37:09.770Z,993.03
2019-04-07T04:38:10.306Z,992.94
2019-04-07T04:39:10.402Z,993.03
2019-04-07T04:40:10.939Z,993.00
2019-04-07T04:41:11.256Z,993.01
2019-04-07T04:42:11.522Z,993.09
2019-04-07T04:43:11.144Z,993.07
2019-04-07T04:44:11.434Z,992.95
2019-04-07T04:45:11.818Z,992.97
2019-04-07T04:46:12.716Z,992.99
2019-04-07T04:47:12.880Z,992.96
2019-04-07T04:48:12.879Z,993.01
2019-04-07T04:49:13.565Z,992.98
2019-04-07T04:50:14.812Z,992.96
2019-04-07T04:51:13.981Z,993.00
2019-04-07T04:52:13.757Z,993.01
2019-04-07T04:53:15.001Z,992.95
2019-04-07T04:54:14.521Z,993.04
2019-04-07T04:55:15.343Z,993.00
2019-04-07T04:56:14.676Z,993.04
2019-04-07T04:57:14.932Z,993.09
2019-04-07T04:59:15.455Z,993.08
2019-04-07T05:00:15.818Z,993.17
2019-04-07T05:01:15.371Z,993.11
2019-04-07T05:02:15.949Z,993.11
2019-04-07T05:03:16.022Z,993.16
2019-04-07T05:04:16.223Z,993.15
2019-04-07T05:05:17.030Z,993.16
2019-04-07T05:06:16.740Z,993.13
2019-04-07T05:07:17.163Z,993.22
2019-04-07T05:08:17.700Z,993.22
2019-04-07T05:09:18.094Z,993.28
2019-04-07T05:10:19.163Z,993.27
2019-04-07T05:11:19.024Z,993.28
2019-04-07T05:12:18.837Z,993.21
2019-04-07T05:13:19.877Z,993.31
2019-04-07T05:14:19.782Z,993.30
2019-04-07T05:15:20.050Z,993.38
2019-04-07T05:16:21.368Z,993.29
2019-04-07T05:17:20.939Z,993.33
2019-04-07T05:18:21.136Z,993.37
2019-04-07T05:19:21.393Z,993.42
2019-04-07T05:20:21.780Z,993.43
2019-04-07T05:21:22.339Z,993.44
2019-04-07T05:22:22.591Z,993.43
2019-04-07T05:23:23.093Z,993.44
2019-04-07T05:24:23.179Z,993.46
2019-04-07T05:25:23.711Z,993.32
2019-04-07T05:26:24.061Z,993.35
2019-04-07T05:27:24.039Z,993.35
2019-04-07T05:28:24.459Z,993.35
2019-04-07T05:29:24.792Z,993.36
2019-04-07T05:30:24.943Z,993.37
2019-04-07T05:31:25.832Z,993.39
2019-04-07T05:32:25.514Z,993.39
2019-04-07T05:33:25.807Z,993.44
2019-04-07T05:34:26.614Z,993.44
2019-04-07T05:35:26.396Z,993.45
2019-04-07T05:36:26.990Z,993.46
2019-04-07T05:37:26.929Z,993.46
2019-04-07T05:38:27.246Z,993.46
2019-04-07T05:39:28.281Z,993.46
2019-04-07T05:40:28.006Z,993.48
2019-04-07T05:41:28.492Z,993.47
2019-04-07T05:42:28.889Z,993.49
2019-04-07T05:43:29.039Z,993.48
2019-04-07T05:44:29.351Z,993.50
2019-04-07T05:45:30.415Z,993.50
2019-04-07T05:46:30.282Z,993.51
2019-04-07T05:47:31.412Z,993.51
2019-04-07T05:48:30.689Z,993.52
2019-04-07T05:49:31.399Z,993.54
2019-04-07T05:50:31.838Z,993.54
2019-04-07T05:51:31.770Z,993.54
2019-04-07T05:52:35.384Z,993.56
2019-04-07T05:53:33.230Z,993.56
2019-04-07T05:54:33.996Z,993.59
2019-04-07T05:55:33.436Z,993.65
2019-04-07T05:56:33.381Z,993.65
2019-04-07T05:57:35.266Z,993.66
2019-04-07T05:58:37.562Z,993.66
2019-04-07T05:59:34.185Z,993.68
2019-04-07T06:00:34.150Z,993.69
2019-04-07T06:01:35.418Z,993.70
2019-04-07T06:02:35.294Z,993.69
2019-04-07T06:03:38.722Z,993.70
2019-04-07T06:04:34.942Z,993.69
2019-04-07T06:05:35.699Z,993.70
2019-04-07T06:06:35.565Z,993.71
2019-04-07T06:07:36.909Z,993.73
2019-04-07T06:08:39.183Z,993.74
2019-04-07T06:09:37.180Z,993.75
2019-04-07T06:10:37.122Z,993.77
2019-04-07T06:11:36.804Z,993.78
2019-04-07T06:12:40.860Z,993.84
2019-04-07T06:13:38.006Z,993.79
2019-04-07T06:14:38.035Z,993.79
2019-04-07T06:15:38.217Z,993.78
2019-04-07T06:16:38.761Z,993.80
2019-04-07T06:17:39.117Z,993.80
2019-04-07T06:18:38.859Z,993.80
2019-04-07T06:19:41.182Z,993.82
2019-04-07T06:20:39.879Z,993.81
2019-04-07T06:21:39.945Z,993.80
2019-04-07T06:22:40.438Z,993.80
2019-04-07T06:23:40.807Z,993.79
2019-04-07T06:24:41.108Z,993.79
2019-04-07T06:25:43.286Z,993.77
2019-04-07T06:26:42.112Z,993.78
2019-04-07T06:27:44.810Z,993.77
2019-04-07T06:28:42.209Z,993.78
2019-04-07T06:29:42.672Z,993.79
2019-04-07T06:30:43.042Z,993.82
2019-04-07T06:31:43.585Z,993.80
2019-04-07T06:32:44.680Z,993.81
2019-04-07T06:33:43.780Z,993.85
2019-04-07T06:34:44.464Z,993.90
2019-04-07T06:35:45.646Z,993.81
2019-04-07T06:36:45.073Z,993.92
2019-04-07T06:37:45.455Z,993.88
2019-04-07T06:38:49.792Z,993.78
2019-04-07T06:39:50.061Z,993.79
2019-04-07T06:40:46.002Z,993.90
2019-04-07T06:41:46.549Z,993.87
2019-04-07T06:42:46.782Z,993.91
2019-04-07T06:43:46.809Z,993.90
2019-04-07T06:44:50.079Z,993.86
2019-04-07T06:45:47.580Z,993.83
2019-04-07T06:46:47.992Z,993.87
2019-04-07T06:47:48.620Z,993.82
2019-04-07T06:48:48.701Z,993.89
2019-04-07T06:49:48.197Z,993.88
2019-04-07T06:50:54.861Z,993.92
2019-04-07T06:51:47.997Z,993.96
2019-04-07T06:52:48.796Z,993.97
2019-04-07T06:53:49.084Z,993.93
2019-04-07T06:54:52.031Z,993.91
2019-04-07T06:55:49.680Z,993.97
2019-04-07T06:56:50.019Z,993.96
2019-04-07T06:57:49.839Z,994.00
2019-04-07T06:58:50.423Z,993.95
2019-04-07T06:59:50.144Z,993.94
2019-04-07T07:00:53.596Z,993.88
2019-04-07T07:01:50.538Z,993.93
2019-04-07T07:02:50.640Z,993.88
2019-04-07T07:03:51.448Z,993.86
2019-04-07T07:04:50.828Z,993.93
2019-04-07T07:05:51.492Z,993.97
2019-04-07T07:06:51.478Z,993.93
2019-04-07T07:07:52.068Z,993.97
2019-04-07T07:08:54.172Z,994.01
2019-04-07T07:09:52.276Z,993.96
2019-04-07T07:10:52.222Z,994.05
2019-04-07T07:11:52.786Z,994.00
2019-04-07T07:12:52.976Z,994.03
2019-04-07T07:13:53.157Z,994.11
2019-04-07T07:14:53.858Z,994.00
2019-04-07T07:15:54.076Z,994.05
2019-04-07T07:16:54.447Z,993.98
2019-04-07T07:17:56.994Z,994.00
2019-04-07T07:18:56.037Z,994.10
2019-04-07T07:19:56.636Z,994.04
2019-04-07T07:20:55.674Z,994.03
2019-04-07T07:21:55.765Z,994.01
2019-04-07T07:22:56.094Z,994.09
2019-04-07T07:23:56.845Z,994.00
2019-04-07T07:24:59.276Z,994.03
2019-04-07T07:26:00.951Z,994.01
2019-04-07T07:26:58.055Z,993.94
2019-04-07T07:27:57.777Z,993.95
2019-04-07T07:28:58.451Z,993.99
2019-04-07T07:29:57.918Z,994.02
2019-04-07T07:30:58.891Z,994.03
2019-04-07T07:32:01.944Z,994.01
2019-04-07T07:32:59.560Z,994.01
2019-04-07T07:33:59.271Z,994.04
2019-04-07T07:34:59.725Z,994.07
2019-04-07T07:36:00.023Z,994.05
2019-04-07T07:37:00.377Z,993.99
2019-04-07T07:38:00.999Z,994.03
2019-04-07T07:39:02.490Z,994.07
2019-04-07T07:40:02.122Z,994.06
2019-04-07T07:41:03.575Z,994.06
2019-04-07T07:42:01.960Z,994.04
2019-04-07T07:43:02.299Z,994.00
2019-04-07T07:44:03.779Z,994.03
2019-04-07T07:45:02.650Z,994.00
2019-04-07T07:46:03.137Z,994.01
2019-04-07T07:47:02.719Z,994.01
2019-04-07T07:48:03.125Z,994.06
2019-04-07T07:49:04.159Z,994.08
2019-04-07T07:50:05.454Z,994.07
2019-04-07T07:51:04.089Z,994.07
2019-04-07T07:52:03.532Z,994.01
2019-04-07T07:53:03.626Z,994.02
2019-04-07T07:54:04.643Z,994.06
2019-04-07T07:55:04.063Z,994.01
2019-04-07T07:56:08.407Z,994.01
2019-04-07T07:57:04.953Z,994.01
2019-04-07T07:58:04.444Z,993.98
2019-04-07T07:59:04.508Z,994.08
2019-04-07T08:00:06.927Z,994.04
2019-04-07T08:01:05.442Z,994.11
2019-04-07T08:02:05.263Z,994.06
2019-04-07T08:03:05.914Z,994.13
2019-04-07T08:04:06.308Z,994.13
2019-04-07T08:05:07.158Z,994.07
2019-04-07T08:06:08.342Z,994.13
2019-04-07T08:07:10.814Z,994.19
2019-04-07T08:08:07.307Z,994.16
2019-04-07T08:09:13.754Z,994.16
2019-04-07T08:10:08.556Z,994.21
2019-04-07T08:11:08.360Z,994.09
2019-04-07T08:12:09.597Z,994.18
2019-04-07T08:13:09.114Z,994.19
2019-04-07T08:14:09.971Z,994.12
2019-04-07T08:15:10.041Z,994.16
2019-04-07T08:16:10.893Z,994.18
2019-04-07T08:17:10.580Z,994.16
2019-04-07T08:18:10.294Z,994.19
2019-04-07T08:19:10.973Z,994.15
2019-04-07T08:20:12.093Z,994.22
2019-04-07T08:21:12.451Z,994.19
2019-04-07T08:22:11.986Z,994.14
2019-04-07T08:23:13.206Z,994.14
2019-04-07T08:24:16.410Z,994.19
2019-04-07T08:25:12.722Z,994.11
2019-04-07T08:26:13.358Z,994.17
2019-04-07T08:27:12.809Z,994.13
2019-04-07T08:28:13.568Z,994.16
2019-04-07T08:29:13.902Z,994.17
2019-04-07T08:30:13.985Z,994.14
2019-04-07T08:31:17.758Z,994.19
2019-04-07T08:32:14.448Z,994.20
2019-04-07T08:33:14.839Z,994.21
2019-04-07T08:34:15.164Z,994.24
2019-04-07T08:35:16.489Z,994.20
2019-04-07T08:36:15.581Z,994.10
2019-04-07T08:37:16.255Z,994.24
2019-04-07T08:38:19.566Z,994.22
2019-04-07T08:39:23.732Z,994.26
2019-04-07T08:40:17.203Z,994.20
2019-04-07T08:41:17.002Z,994.25
2019-04-07T08:42:18.762Z,994.29
2019-04-07T08:43:21.326Z,994.27
2019-04-07T08:44:17.708Z,994.30
2019-04-07T08:45:18.935Z,994.28
2019-04-07T08:46:18.882Z,994.28
2019-04-07T08:47:21.917Z,994.25
2019-04-07T08:48:20.832Z,994.29
2019-04-07T08:49:23.573Z,994.20
2019-04-07T08:50:21.480Z,994.28
2019-04-07T08:51:21.222Z,994.29
2019-04-07T08:52:21.148Z,994.22
2019-04-07T08:53:20.790Z,994.20
2019-04-07T08:54:21.494Z,994.23
2019-04-07T08:55:21.859Z,994.24
2019-04-07T08:56:24.826Z,994.35
2019-04-07T08:57:22.571Z,994.23
2019-04-07T08:58:25.748Z,994.27
2019-04-07T08:59:22.183Z,994.26
2019-04-07T09:00:22.469Z,994.25
2019-04-07T09:01:22.812Z,994.35
2019-04-07T09:02:26.063Z,994.29
2019-04-07T09:03:23.571Z,994.33
2019-04-07T09:04:26.641Z,994.36
2019-04-07T09:05:27.754Z,994.31
2019-04-07T09:06:27.273Z,994.35
2019-04-07T09:07:24.927Z,994.33
2019-04-07T09:08:26.051Z,994.38
2019-04-07T09:09:33.902Z,994.34
2019-04-07T09:10:25.969Z,994.29
2019-04-07T09:11:26.018Z,994.32
2019-04-07T09:12:30.958Z,994.36
2019-04-07T09:13:26.439Z,994.36
2019-04-07T09:14:27.240Z,994.34
2019-04-07T09:15:27.054Z,994.30
2019-04-07T09:16:27.984Z,994.22
2019-04-07T09:17:32.168Z,994.30
2019-04-07T09:18:27.768Z,994.29
2019-04-07T09:19:27.743Z,994.30
2019-04-07T09:20:27.925Z,994.27
2019-04-07T09:21:37.249Z,994.32
2019-04-07T09:22:29.784Z,994.34
2019-04-07T09:23:29.476Z,994.34
2019-04-07T09:24:31.429Z,994.27
2019-04-07T09:25:31.896Z,994.26
2019-04-07T09:26:29.755Z,994.31
2019-04-07T09:27:30.053Z,994.24
2019-04-07T09:28:29.913Z,994.31
2019-04-07T09:29:31.261Z,994.23
2019-04-07T09:30:30.791Z,994.28
2019-04-07T09:31:30.487Z,994.25
2019-04-07T09:32:30.902Z,994.11
2019-04-07T09:33:31.750Z,994.31
2019-04-07T09:34:31.093Z,994.34
2019-04-07T09:35:32.063Z,994.10
2019-04-07T09:36:33.453Z,994.28
2019-04-07T09:37:32.363Z,994.31
2019-04-07T09:38:32.003Z,994.24
2019-04-07T09:39:50.630Z,994.26
2019-04-07T09:40:32.688Z,994.23
2019-04-07T09:41:32.861Z,994.29
2019-04-07T09:42:33.386Z,994.29
2019-04-07T09:43:33.507Z,994.23
2019-04-07T09:44:36.063Z,994.38
2019-04-07T09:45:34.534Z,994.33
2019-04-07T09:46:35.481Z,994.28
2019-04-07T09:47:35.828Z,994.23
2019-04-07T09:48:35.377Z,994.21
2019-04-07T09:49:35.348Z,994.26
2019-04-07T09:50:34.841Z,994.18
2019-04-07T09:51:37.586Z,994.21
2019-04-07T09:52:34.896Z,994.24
2019-04-07T09:53:36.039Z,994.23
2019-04-07T09:54:35.677Z,994.23
2019-04-07T09:55:36.758Z,994.20
2019-04-07T09:56:36.522Z,994.12
2019-04-07T09:57:38.779Z,994.13
2019-04-07T09:58:39.222Z,994.14
2019-04-07T09:59:37.489Z,994.15
2019-04-07T10:00:38.758Z,994.14
2019-04-07T10:01:37.199Z,994.19
2019-04-07T10:02:38.383Z,994.21
2019-04-07T10:03:38.649Z,994.15
2019-04-07T10:04:42.202Z,994.17
2019-04-07T10:05:40.417Z,994.09
2019-04-07T10:06:39.715Z,994.15
2019-04-07T10:07:42.322Z,994.02
2019-04-07T10:08:39.428Z,994.07
2019-04-07T10:09:40.033Z,994.09
2019-04-07T10:10:40.030Z,994.08
2019-04-07T10:11:40.157Z,994.05
2019-04-07T10:12:40.447Z,994.06
2019-04-07T10:13:40.955Z,994.14
2019-04-07T10:14:42.141Z,994.10
2019-04-07T10:15:42.022Z,994.12
2019-04-07T10:16:41.940Z,994.05
2019-04-07T10:17:41.902Z,994.06
2019-04-07T10:18:42.799Z,994.02
2019-04-07T10:19:42.657Z,994.06
2019-04-07T10:20:42.941Z,994.14
2019-04-07T10:21:42.969Z,994.14
2019-04-07T10:22:43.004Z,994.14
2019-04-07T10:23:43.028Z,994.16
2019-04-07T10:24:43.536Z,994.14
2019-04-07T10:25:44.456Z,994.11
2019-04-07T10:26:44.114Z,994.09
2019-04-07T10:27:45.142Z,994.13
2019-04-07T10:28:45.400Z,994.21
2019-04-07T10:29:45.241Z,994.17
2019-04-07T10:30:45.823Z,994.09
2019-04-07T10:31:45.297Z,994.08
2019-04-07T10:32:46.306Z,994.12
2019-04-07T10:33:46.078Z,994.09
2019-04-07T10:34:46.135Z,994.04
2019-04-07T10:35:46.776Z,994.04
2019-04-07T10:36:47.494Z,994.15
2019-04-07T10:37:48.038Z,994.05
2019-04-07T10:38:48.018Z,994.12
2019-04-07T10:39:48.370Z,994.07
2019-04-07T10:40:47.985Z,994.01
2019-04-07T10:41:48.285Z,994.01
2019-04-07T10:42:49.077Z,994.05
2019-04-07T10:43:48.748Z,993.97
2019-04-07T10:44:49.271Z,994.00
2019-04-07T10:45:49.386Z,994.07
2019-04-07T10:46:49.369Z,994.12
2019-04-07T10:48:49.866Z,994.10
2019-04-07T10:49:59.255Z,994.08
2019-04-07T10:50:51.813Z,994.14
2019-04-07T10:51:51.267Z,994.04
2019-04-07T10:52:51.437Z,994.01
2019-04-07T10:53:51.241Z,994.16
2019-04-07T10:54:51.242Z,994.12
2019-04-07T10:55:52.147Z,994.00
2019-04-07T10:56:51.959Z,994.06
2019-04-07T10:57:52.416Z,994.08
2019-04-07T10:58:52.758Z,994.04
2019-04-07T10:59:53.285Z,994.08
2019-04-07T11:00:53.751Z,994.16
2019-04-07T11:01:54.523Z,994.09
2019-04-07T11:02:55.715Z,994.11
2019-04-07T11:03:55.631Z,994.10
2019-04-07T11:04:55.220Z,994.07
2019-04-07T11:05:54.958Z,994.18
2019-04-07T11:06:54.965Z,994.17
2019-04-07T11:07:54.947Z,994.02
2019-04-07T11:08:55.539Z,994.03
2019-04-07T11:09:55.515Z,994.10
2019-04-07T11:10:55.677Z,994.07
2019-04-07T11:11:55.599Z,994.07
2019-04-07T11:12:56.116Z,993.99
2019-04-07T11:13:56.391Z,993.98
2019-04-07T11:14:57.119Z,993.96
2019-04-07T11:15:57.676Z,994.06
2019-04-07T11:16:59.889Z,994.01
2019-04-07T11:17:58.178Z,994.01
2019-04-07T11:18:58.569Z,993.97
2019-04-07T11:19:59.043Z,993.98
2019-04-07T11:20:58.713Z,994.02
2019-04-07T11:21:58.769Z,994.07
2019-04-07T11:22:58.827Z,993.98
2019-04-07T11:23:59.002Z,994.05
2019-04-07T11:24:59.310Z,993.99
2019-04-07T11:26:00.598Z,993.95
2019-04-07T11:27:00.438Z,994.07
2019-04-07T11:28:01.385Z,994.05
2019-04-07T11:29:01.521Z,993.99
2019-04-07T11:30:01.103Z,994.04
2019-04-07T11:31:02.215Z,993.96
2019-04-07T11:32:01.528Z,994.09
2019-04-07T11:33:01.869Z,994.10
2019-04-07T11:34:01.477Z,994.08
2019-04-07T11:35:01.834Z,994.10
2019-04-07T11:36:02.418Z,994.03
2019-04-07T11:37:02.429Z,993.97
2019-04-07T11:38:02.854Z,993.95
2019-04-07T11:39:03.114Z,994.11
2019-04-07T11:40:04.659Z,993.97
2019-04-07T11:41:04.295Z,994.05
2019-04-07T11:42:05.038Z,993.99
2019-04-07T11:43:04.436Z,993.94
2019-04-07T11:44:05.375Z,994.01
2019-04-07T11:45:05.002Z,993.99
2019-04-07T11:46:05.722Z,993.96
2019-04-07T11:47:05.985Z,994.00
2019-04-07T11:48:06.626Z,993.94
2019-04-07T11:49:07.395Z,993.97
2019-04-07T11:50:06.089Z,993.92
2019-04-07T11:51:06.368Z,993.98
2019-04-07T11:52:07.138Z,993.95
2019-04-07T11:53:07.554Z,993.94
2019-04-07T11:54:07.716Z,993.94
2019-04-07T11:55:08.558Z,993.87
2019-04-07T11:56:10.779Z,993.88
2019-04-07T11:57:08.691Z,993.86
2019-04-07T11:58:15.078Z,993.92
2019-04-07T11:59:10.100Z,993.94
2019-04-07T12:00:09.684Z,993.87
2019-04-07T12:01:12.963Z,993.95
2019-04-07T12:03:10.582Z,993.88
2019-04-07T12:04:11.136Z,993.82
2019-04-07T12:05:10.604Z,993.78
2019-04-07T12:06:11.589Z,993.74
2019-04-07T12:07:11.259Z,993.83
2019-04-07T12:08:11.763Z,993.74
2019-04-07T12:09:12.018Z,993.87
2019-04-07T12:11:13.602Z,993.92
2019-04-07T12:12:12.634Z,993.78
2019-04-07T12:13:13.299Z,993.74
2019-04-07T12:14:15.040Z,993.89
2019-04-07T12:15:13.125Z,993.85
2019-04-07T12:16:13.502Z,993.82
2019-04-07T12:17:13.841Z,993.85
2019-04-07T12:18:17.455Z,993.92
2019-04-07T12:19:13.957Z,993.81
2019-04-07T12:20:14.201Z,993.81
2019-04-07T12:21:21.797Z,993.86
2019-04-07T12:22:14.444Z,993.89
2019-04-07T12:23:20.973Z,993.88
2019-04-07T12:24:14.847Z,993.81
2019-04-07T12:25:15.829Z,993.87
2019-04-07T12:26:16.030Z,993.83
2019-04-07T12:27:16.221Z,993.89
2019-04-07T12:28:18.899Z,993.91
2019-04-07T12:29:16.752Z,993.89
2019-04-07T12:30:16.662Z,993.85
2019-04-07T12:31:16.381Z,993.87
2019-04-07T12:32:17.105Z,993.94
2019-04-07T12:33:17.903Z,993.87
2019-04-07T12:34:17.809Z,993.88
2019-04-07T12:35:19.278Z,993.84
2019-04-07T12:36:18.526Z,993.87
2019-04-07T12:37:18.783Z,993.81
2019-04-07T12:38:19.241Z,993.89
2019-04-07T12:39:19.101Z,993.86